sensor_id;sensor_type;location;lat;lon;timestamp;P1;durP1;ratioP1;P2;durP2;ratioP2
13208;SDS011;6669;42.678;23.332;2024-03-25T00:01:40;0.30;;;0.30;;
13208;SDS011;6669;42.678;23.332;2024-03-25T00:04:06;0.60;;;0.60;;
13208;SDS011;6669;42.678;23.332;2024-03-25T00:06:34;0.47;;;0.47;;
13208;SDS011;6669;42.678;23.332;2024-03-25T00:09:01;0.60;;;0.60;;
13208;SDS011;6669;42.678;23.332;2024-03-25T00:11:30;1.03;;;0.83;;
13208;SDS011;6669;42.678;23.332;2024-03-25T00:13:56;0.40;;;0.40;;
13208;SDS011;6669;42.678;23.332;2024-03-25T00:16:23;0.73;;;0.63;;
13208;SDS011;6669;42.678;23.332;2024-03-25T00:18:49;0.47;;;0.47;;
13208;SDS011;6669;42.678;23.332;2024-03-25T00:21:16;0.57;;;0.57;;
13208;SDS011;6669;42.678;23.332;2024-03-25T00:23:42;0.47;;;0.47;;
13208;SDS011;6669;42.678;23.332;2024-03-25T00:26:10;0.60;;;0.60;;
13208;SDS011;6669;42.678;23.332;2024-03-25T00:28:37;0.30;;;0.30;;
13208;SDS011;6669;42.678;23.332;2024-03-25T00:31:04;0.70;;;0.50;;
13208;SDS011;6669;42.678;23.332;2024-03-25T00:33:31;0.93;;;0.70;;
13208;SDS011;6669;42.678;23.332;2024-03-25T00:35:58;0.50;;;0.50;;
13208;SDS011;6669;42.678;23.332;2024-03-25T00:38:24;0.50;;;0.50;;
13208;SDS011;6669;42.678;23.332;2024-03-25T00:40:51;0.60;;;0.60;;
13208;SDS011;6669;42.678;23.332;2024-03-25T00:43:18;0.20;;;0.20;;
13208;SDS011;6669;42.678;23.332;2024-03-25T00:45:47;0.30;;;0.30;;
13208;SDS011;6669;42.678;23.332;2024-03-25T00:48:13;0.40;;;0.40;;
13208;SDS011;6669;42.678;23.332;2024-03-25T00:50:41;0.27;;;0.27;;
13208;SDS011;6669;42.678;23.332;2024-03-25T00:53:07;0.20;;;0.20;;
13208;SDS011;6669;42.678;23.332;2024-03-25T00:55:34;0.10;;;0.10;;
13208;SDS011;6669;42.678;23.332;2024-03-25T00:58:01;0.40;;;0.40;;
13208;SDS011;6669;42.678;23.332;2024-03-25T01:00:28;0.50;;;0.40;;
13208;SDS011;6669;42.678;23.332;2024-03-25T01:02:55;0.10;;;0.10;;
13208;SDS011;6669;42.678;23.332;2024-03-25T01:05:23;0.20;;;0.20;;
13208;SDS011;6669;42.678;23.332;2024-03-25T01:07:49;0.20;;;0.20;;
13208;SDS011;6669;42.678;23.332;2024-03-25T01:10:16;0.10;;;0.10;;
13208;SDS011;6669;42.678;23.332;2024-03-25T01:12:43;0.00;;;0.00;;
13208;SDS011;6669;42.678;23.332;2024-03-25T01:15:11;0.10;;;0.10;;
13208;SDS011;6669;42.678;23.332;2024-03-25T01:17:37;0.30;;;0.30;;
13208;SDS011;6669;42.678;23.332;2024-03-25T01:20:06;0.07;;;0.07;;
13208;SDS011;6669;42.678;23.332;2024-03-25T01:22:34;0.23;;;0.23;;
13208;SDS011;6669;42.678;23.332;2024-03-25T01:25:01;0.10;;;0.10;;
13208;SDS011;6669;42.678;23.332;2024-03-25T01:27:27;0.27;;;0.27;;
13208;SDS011;6669;42.678;23.332;2024-03-25T01:29:54;0.10;;;0.10;;
13208;SDS011;6669;42.678;23.332;2024-03-25T01:32:21;0.57;;;0.30;;
13208;SDS011;6669;42.678;23.332;2024-03-25T01:34:48;0.33;;;0.23;;
13208;SDS011;6669;42.678;23.332;2024-03-25T01:37:15;0.10;;;0.10;;
13208;SDS011;6669;42.678;23.332;2024-03-25T01:39:43;0.57;;;0.20;;
13208;SDS011;6669;42.678;23.332;2024-03-25T01:42:09;0.40;;;0.10;;
13208;SDS011;6669;42.678;23.332;2024-03-25T01:44:36;0.30;;;0.20;;
13208;SDS011;6669;42.678;23.332;2024-03-25T01:47:03;0.40;;;0.27;;
13208;SDS011;6669;42.678;23.332;2024-03-25T01:49:31;0.30;;;0.30;;
13208;SDS011;6669;42.678;23.332;2024-03-25T01:51:57;0.30;;;0.20;;
13208;SDS011;6669;42.678;23.332;2024-03-25T01:54:26;0.50;;;0.40;;
13208;SDS011;6669;42.678;23.332;2024-03-25T01:56:53;1.70;;;0.30;;
13208;SDS011;6669;42.678;23.332;2024-03-25T01:59:21;0.27;;;0.27;;
13208;SDS011;6669;42.678;23.332;2024-03-25T02:01:48;0.60;;;0.60;;
13208;SDS011;6669;42.678;23.332;2024-03-25T02:04:16;0.37;;;0.30;;
13208;SDS011;6669;42.678;23.332;2024-03-25T02:06:42;0.23;;;0.23;;
13208;SDS011;6669;42.678;23.332;2024-03-25T02:09:11;0.20;;;0.20;;
13208;SDS011;6669;42.678;23.332;2024-03-25T02:11:40;0.17;;;0.17;;
13208;SDS011;6669;42.678;23.332;2024-03-25T02:14:08;0.23;;;0.10;;
13208;SDS011;6669;42.678;23.332;2024-03-25T02:16:35;0.13;;;0.13;;
13208;SDS011;6669;42.678;23.332;2024-03-25T02:19:02;0.20;;;0.10;;
13208;SDS011;6669;42.678;23.332;2024-03-25T02:21:28;0.20;;;0.20;;
13208;SDS011;6669;42.678;23.332;2024-03-25T02:23:56;0.37;;;0.37;;
13208;SDS011;6669;42.678;23.332;2024-03-25T02:26:26;0.30;;;0.30;;
13208;SDS011;6669;42.678;23.332;2024-03-25T02:28:54;0.20;;;0.20;;
13208;SDS011;6669;42.678;23.332;2024-03-25T02:31:20;0.40;;;0.40;;
13208;SDS011;6669;42.678;23.332;2024-03-25T02:33:48;0.20;;;0.20;;
13208;SDS011;6669;42.678;23.332;2024-03-25T02:36:14;0.30;;;0.30;;
13208;SDS011;6669;42.678;23.332;2024-03-25T02:38:41;0.23;;;0.23;;
13208;SDS011;6669;42.678;23.332;2024-03-25T02:41:07;0.10;;;0.00;;
13208;SDS011;6669;42.678;23.332;2024-03-25T02:43:36;0.20;;;0.20;;
13208;SDS011;6669;42.678;23.332;2024-03-25T02:46:02;0.20;;;0.20;;
13208;SDS011;6669;42.678;23.332;2024-03-25T02:48:30;0.10;;;0.10;;
13208;SDS011;6669;42.678;23.332;2024-03-25T02:50:56;0.13;;;0.13;;
13208;SDS011;6669;42.678;23.332;2024-03-25T02:53:23;0.30;;;0.30;;
13208;SDS011;6669;42.678;23.332;2024-03-25T02:55:50;0.10;;;0.10;;
13208;SDS011;6669;42.678;23.332;2024-03-25T02:58:17;0.30;;;0.30;;
13208;SDS011;6669;42.678;23.332;2024-03-25T03:00:44;0.60;;;0.30;;
13208;SDS011;6669;42.678;23.332;2024-03-25T03:03:12;0.57;;;0.57;;
13208;SDS011;6669;42.678;23.332;2024-03-25T03:05:38;0.50;;;0.50;;
13208;SDS011;6669;42.678;23.332;2024-03-25T03:08:05;0.57;;;0.57;;
13208;SDS011;6669;42.678;23.332;2024-03-25T03:10:31;0.27;;;0.27;;
13208;SDS011;6669;42.678;23.332;2024-03-25T03:12:59;0.50;;;0.50;;
13208;SDS011;6669;42.678;23.332;2024-03-25T03:15:26;0.50;;;0.50;;
13208;SDS011;6669;42.678;23.332;2024-03-25T03:17:54;0.60;;;0.60;;
13208;SDS011;6669;42.678;23.332;2024-03-25T03:20:20;0.40;;;0.40;;
13208;SDS011;6669;42.678;23.332;2024-03-25T03:22:48;0.60;;;0.60;;
13208;SDS011;6669;42.678;23.332;2024-03-25T03:25:14;0.30;;;0.30;;
13208;SDS011;6669;42.678;23.332;2024-03-25T03:27:42;0.43;;;0.43;;
13208;SDS011;6669;42.678;23.332;2024-03-25T03:30:08;0.33;;;0.33;;
13208;SDS011;6669;42.678;23.332;2024-03-25T03:32:36;0.50;;;0.50;;
13208;SDS011;6669;42.678;23.332;2024-03-25T03:35:04;0.20;;;0.20;;
13208;SDS011;6669;42.678;23.332;2024-03-25T03:37:31;0.60;;;0.60;;
13208;SDS011;6669;42.678;23.332;2024-03-25T03:39:57;0.50;;;0.50;;
13208;SDS011;6669;42.678;23.332;2024-03-25T03:42:25;0.60;;;0.60;;
13208;SDS011;6669;42.678;23.332;2024-03-25T03:44:51;0.70;;;0.70;;
13208;SDS011;6669;42.678;23.332;2024-03-25T03:47:18;0.80;;;0.80;;
13208;SDS011;6669;42.678;23.332;2024-03-25T03:49:44;0.77;;;0.77;;
13208;SDS011;6669;42.678;23.332;2024-03-25T03:52:13;0.63;;;0.63;;
13208;SDS011;6669;42.678;23.332;2024-03-25T03:54:39;0.87;;;0.87;;
13208;SDS011;6669;42.678;23.332;2024-03-25T03:57:06;0.80;;;0.80;;
13208;SDS011;6669;42.678;23.332;2024-03-25T03:59:32;0.80;;;0.80;;
13208;SDS011;6669;42.678;23.332;2024-03-25T04:01:59;1.00;;;0.90;;
13208;SDS011;6669;42.678;23.332;2024-03-25T04:04:25;0.70;;;0.60;;
13208;SDS011;6669;42.678;23.332;2024-03-25T04:06:53;0.80;;;0.80;;
13208;SDS011;6669;42.678;23.332;2024-03-25T04:09:20;0.90;;;0.90;;
13208;SDS011;6669;42.678;23.332;2024-03-25T04:11:49;1.30;;;1.20;;
13208;SDS011;6669;42.678;23.332;2024-03-25T04:14:15;1.10;;;1.00;;
13208;SDS011;6669;42.678;23.332;2024-03-25T04:16:42;1.30;;;1.20;;
13208;SDS011;6669;42.678;23.332;2024-03-25T04:19:08;1.33;;;1.23;;
13208;SDS011;6669;42.678;23.332;2024-03-25T04:21:35;1.60;;;1.50;;
13208;SDS011;6669;42.678;23.332;2024-03-25T04:24:02;2.20;;;1.80;;
13208;SDS011;6669;42.678;23.332;2024-03-25T04:26:31;1.83;;;1.57;;
13208;SDS011;6669;42.678;23.332;2024-03-25T04:28:57;1.57;;;1.47;;
13208;SDS011;6669;42.678;23.332;2024-03-25T04:31:24;1.80;;;1.70;;
13208;SDS011;6669;42.678;23.332;2024-03-25T04:33:51;1.87;;;1.73;;
13208;SDS011;6669;42.678;23.332;2024-03-25T04:36:18;1.93;;;1.83;;
13208;SDS011;6669;42.678;23.332;2024-03-25T04:38:44;2.80;;;2.50;;
13208;SDS011;6669;42.678;23.332;2024-03-25T04:41:10;2.47;;;2.23;;
13208;SDS011;6669;42.678;23.332;2024-03-25T04:43:38;2.80;;;2.60;;
13208;SDS011;6669;42.678;23.332;2024-03-25T04:46:04;2.97;;;2.70;;
13208;SDS011;6669;42.678;23.332;2024-03-25T04:48:30;3.67;;;2.87;;
13208;SDS011;6669;42.678;23.332;2024-03-25T04:50:56;2.77;;;2.57;;
13208;SDS011;6669;42.678;23.332;2024-03-25T04:53:22;3.50;;;3.20;;
13208;SDS011;6669;42.678;23.332;2024-03-25T04:55:49;4.13;;;3.50;;
13208;SDS011;6669;42.678;23.332;2024-03-25T04:58:15;3.30;;;2.97;;
13208;SDS011;6669;42.678;23.332;2024-03-25T05:00:42;3.40;;;3.10;;
13208;SDS011;6669;42.678;23.332;2024-03-25T05:03:09;3.60;;;3.30;;
13208;SDS011;6669;42.678;23.332;2024-03-25T05:05:35;3.77;;;3.47;;
13208;SDS011;6669;42.678;23.332;2024-03-25T05:08:01;3.90;;;3.50;;
13208;SDS011;6669;42.678;23.332;2024-03-25T05:10:27;3.73;;;3.33;;
13208;SDS011;6669;42.678;23.332;2024-03-25T05:12:54;4.30;;;3.90;;
13208;SDS011;6669;42.678;23.332;2024-03-25T05:15:20;4.30;;;3.83;;
13208;SDS011;6669;42.678;23.332;2024-03-25T05:17:48;3.70;;;3.23;;
13208;SDS011;6669;42.678;23.332;2024-03-25T05:20:14;4.20;;;3.63;;
13208;SDS011;6669;42.678;23.332;2024-03-25T05:22:41;4.30;;;3.90;;
13208;SDS011;6669;42.678;23.332;2024-03-25T05:25:07;3.80;;;3.40;;
13208;SDS011;6669;42.678;23.332;2024-03-25T05:27:34;4.70;;;4.30;;
13208;SDS011;6669;42.678;23.332;2024-03-25T05:30:00;4.47;;;4.03;;
13208;SDS011;6669;42.678;23.332;2024-03-25T05:32:26;4.30;;;3.90;;
13208;SDS011;6669;42.678;23.332;2024-03-25T05:34:54;5.27;;;4.40;;
13208;SDS011;6669;42.678;23.332;2024-03-25T05:37:20;5.33;;;4.23;;
13208;SDS011;6669;42.678;23.332;2024-03-25T05:39:46;4.33;;;3.93;;
13208;SDS011;6669;42.678;23.332;2024-03-25T05:42:12;4.97;;;4.47;;
13208;SDS011;6669;42.678;23.332;2024-03-25T05:44:38;4.93;;;4.00;;
13208;SDS011;6669;42.678;23.332;2024-03-25T05:47:05;4.00;;;3.20;;
13208;SDS011;6669;42.678;23.332;2024-03-25T05:49:31;4.97;;;4.47;;
13208;SDS011;6669;42.678;23.332;2024-03-25T05:51:58;4.33;;;3.93;;
13208;SDS011;6669;42.678;23.332;2024-03-25T05:54:24;5.53;;;4.97;;
13208;SDS011;6669;42.678;23.332;2024-03-25T05:56:51;4.50;;;4.10;;
13208;SDS011;6669;42.678;23.332;2024-03-25T05:59:17;5.57;;;5.07;;
13208;SDS011;6669;42.678;23.332;2024-03-25T06:01:43;4.93;;;4.53;;
13208;SDS011;6669;42.678;23.332;2024-03-25T06:04:09;4.97;;;4.47;;
13208;SDS011;6669;42.678;23.332;2024-03-25T06:06:35;5.20;;;4.70;;
13208;SDS011;6669;42.678;23.332;2024-03-25T06:09:03;5.07;;;4.67;;
13208;SDS011;6669;42.678;23.332;2024-03-25T06:11:29;4.83;;;4.13;;
13208;SDS011;6669;42.678;23.332;2024-03-25T06:13:55;5.23;;;4.83;;
13208;SDS011;6669;42.678;23.332;2024-03-25T06:16:21;5.40;;;4.90;;
13208;SDS011;6669;42.678;23.332;2024-03-25T06:18:48;5.50;;;4.63;;
13208;SDS011;6669;42.678;23.332;2024-03-25T06:21:15;5.67;;;5.17;;
13208;SDS011;6669;42.678;23.332;2024-03-25T06:23:41;5.57;;;5.07;;
13208;SDS011;6669;42.678;23.332;2024-03-25T06:26:08;5.33;;;4.83;;
13208;SDS011;6669;42.678;23.332;2024-03-25T06:28:34;5.37;;;4.87;;
13208;SDS011;6669;42.678;23.332;2024-03-25T06:31:01;6.30;;;5.70;;
13208;SDS011;6669;42.678;23.332;2024-03-25T06:33:46;5.37;;;4.87;;
13208;SDS011;6669;42.678;23.332;2024-03-25T06:36:31;5.30;;;4.80;;
13208;SDS011;6669;42.678;23.332;2024-03-25T06:38:57;6.00;;;5.50;;
13208;SDS011;6669;42.678;23.332;2024-03-25T06:41:25;4.47;;;4.07;;
13208;SDS011;6669;42.678;23.332;2024-03-25T06:43:51;5.23;;;4.83;;
13208;SDS011;6669;42.678;23.332;2024-03-25T06:46:17;5.50;;;5.00;;
13208;SDS011;6669;42.678;23.332;2024-03-25T06:48:43;6.40;;;5.80;;
13208;SDS011;6669;42.678;23.332;2024-03-25T06:51:09;5.57;;;5.07;;
13208;SDS011;6669;42.678;23.332;2024-03-25T06:56:20;5.80;;;5.00;;
13208;SDS011;6669;42.678;23.332;2024-03-25T06:58:48;6.00;;;5.40;;
13208;SDS011;6669;42.678;23.332;2024-03-25T07:01:14;6.50;;;5.80;;
13208;SDS011;6669;42.678;23.332;2024-03-25T07:03:40;5.63;;;5.13;;
13208;SDS011;6669;42.678;23.332;2024-03-25T07:06:06;5.67;;;5.07;;
13208;SDS011;6669;42.678;23.332;2024-03-25T07:08:32;5.83;;;5.33;;
13208;SDS011;6669;42.678;23.332;2024-03-25T07:10:58;5.97;;;5.47;;
13208;SDS011;6669;42.678;23.332;2024-03-25T07:13:25;3.67;;;3.27;;
13208;SDS011;6669;42.678;23.332;2024-03-25T07:15:52;4.90;;;4.50;;
13208;SDS011;6669;42.678;23.332;2024-03-25T07:18:19;5.27;;;4.73;;
13208;SDS011;6669;42.678;23.332;2024-03-25T07:20:45;4.83;;;3.50;;
13208;SDS011;6669;42.678;23.332;2024-03-25T07:23:11;4.97;;;4.57;;
13208;SDS011;6669;42.678;23.332;2024-03-25T07:25:37;6.90;;;5.13;;
13208;SDS011;6669;42.678;23.332;2024-03-25T07:28:04;5.30;;;4.77;;
13208;SDS011;6669;42.678;23.332;2024-03-25T07:30:30;5.20;;;4.70;;
13208;SDS011;6669;42.678;23.332;2024-03-25T07:32:58;5.43;;;4.93;;
13208;SDS011;6669;42.678;23.332;2024-03-25T07:35:24;5.83;;;5.33;;
13208;SDS011;6669;42.678;23.332;2024-03-25T07:37:51;4.53;;;4.13;;
13208;SDS011;6669;42.678;23.332;2024-03-25T07:40:17;5.47;;;4.97;;
13208;SDS011;6669;42.678;23.332;2024-03-25T07:42:43;4.90;;;4.33;;
13208;SDS011;6669;42.678;23.332;2024-03-25T07:45:09;5.20;;;4.70;;
13208;SDS011;6669;42.678;23.332;2024-03-25T07:47:36;6.37;;;4.90;;
13208;SDS011;6669;42.678;23.332;2024-03-25T07:50:04;5.60;;;5.10;;
13208;SDS011;6669;42.678;23.332;2024-03-25T07:52:31;4.53;;;4.13;;
13208;SDS011;6669;42.678;23.332;2024-03-25T07:54:57;3.90;;;3.50;;
13208;SDS011;6669;42.678;23.332;2024-03-25T07:57:24;5.67;;;4.30;;
13208;SDS011;6669;42.678;23.332;2024-03-25T07:59:50;4.77;;;4.30;;
13208;SDS011;6669;42.678;23.332;2024-03-25T08:02:16;5.07;;;4.60;;
13208;SDS011;6669;42.678;23.332;2024-03-25T08:04:42;3.87;;;3.57;;
13208;SDS011;6669;42.678;23.332;2024-03-25T08:07:10;7.07;;;5.43;;
13208;SDS011;6669;42.678;23.332;2024-03-25T08:09:36;4.77;;;4.27;;
13208;SDS011;6669;42.678;23.332;2024-03-25T08:12:03;4.50;;;4.10;;
13208;SDS011;6669;42.678;23.332;2024-03-25T08:14:29;7.07;;;5.30;;
13208;SDS011;6669;42.678;23.332;2024-03-25T08:16:56;5.63;;;5.13;;
13208;SDS011;6669;42.678;23.332;2024-03-25T08:19:22;4.00;;;3.60;;
13208;SDS011;6669;42.678;23.332;2024-03-25T08:21:48;4.83;;;4.33;;
13208;SDS011;6669;42.678;23.332;2024-03-25T08:24:16;4.27;;;3.87;;
13208;SDS011;6669;42.678;23.332;2024-03-25T08:26:42;4.17;;;3.83;;
13208;SDS011;6669;42.678;23.332;2024-03-25T08:29:08;6.47;;;5.23;;
13208;SDS011;6669;42.678;23.332;2024-03-25T08:31:34;4.53;;;4.13;;
13208;SDS011;6669;42.678;23.332;2024-03-25T08:34:02;3.93;;;3.53;;
13208;SDS011;6669;42.678;23.332;2024-03-25T08:36:31;5.17;;;4.67;;
13208;SDS011;6669;42.678;23.332;2024-03-25T08:38:57;5.50;;;4.40;;
13208;SDS011;6669;42.678;23.332;2024-03-25T08:41:25;8.23;;;6.57;;
13208;SDS011;6669;42.678;23.332;2024-03-25T08:43:51;7.43;;;5.80;;
13208;SDS011;6669;42.678;23.332;2024-03-25T08:46:17;3.10;;;2.80;;
13208;SDS011;6669;42.678;23.332;2024-03-25T08:48:43;3.43;;;3.13;;
13208;SDS011;6669;42.678;23.332;2024-03-25T08:51:09;4.47;;;4.07;;
13208;SDS011;6669;42.678;23.332;2024-03-25T08:53:35;4.03;;;3.63;;
13208;SDS011;6669;42.678;23.332;2024-03-25T08:56:01;4.47;;;3.53;;
13208;SDS011;6669;42.678;23.332;2024-03-25T08:58:29;3.60;;;3.10;;
13208;SDS011;6669;42.678;23.332;2024-03-25T09:00:56;4.60;;;4.20;;
13208;SDS011;6669;42.678;23.332;2024-03-25T09:03:22;4.03;;;3.73;;
13208;SDS011;6669;42.678;23.332;2024-03-25T09:05:48;3.80;;;3.50;;
13208;SDS011;6669;42.678;23.332;2024-03-25T09:08:14;3.13;;;2.83;;
13208;SDS011;6669;42.678;23.332;2024-03-25T09:10:43;4.13;;;3.60;;
13208;SDS011;6669;42.678;23.332;2024-03-25T09:13:29;3.90;;;3.60;;
13208;SDS011;6669;42.678;23.332;2024-03-25T09:15:57;4.60;;;4.20;;
13208;SDS011;6669;42.678;23.332;2024-03-25T09:18:23;3.37;;;3.00;;
13208;SDS011;6669;42.678;23.332;2024-03-25T09:20:49;4.20;;;3.80;;
13208;SDS011;6669;42.678;23.332;2024-03-25T09:23:16;3.13;;;2.83;;
13208;SDS011;6669;42.678;23.332;2024-03-25T09:25:50;4.30;;;3.90;;
13208;SDS011;6669;42.678;23.332;2024-03-25T09:28:17;3.40;;;3.00;;
13208;SDS011;6669;42.678;23.332;2024-03-25T09:30:45;3.80;;;3.50;;
13208;SDS011;6669;42.678;23.332;2024-03-25T09:33:11;4.43;;;4.13;;
13208;SDS011;6669;42.678;23.332;2024-03-25T09:35:37;3.63;;;3.27;;
13208;SDS011;6669;42.678;23.332;2024-03-25T09:38:03;4.37;;;3.97;;
13208;SDS011;6669;42.678;23.332;2024-03-25T09:40:30;3.63;;;3.33;;
13208;SDS011;6669;42.678;23.332;2024-03-25T09:42:56;4.00;;;3.40;;
13208;SDS011;6669;42.678;23.332;2024-03-25T09:45:24;3.90;;;3.60;;
13208;SDS011;6669;42.678;23.332;2024-03-25T09:47:52;3.87;;;3.47;;
13208;SDS011;6669;42.678;23.332;2024-03-25T09:50:20;4.13;;;3.73;;
13208;SDS011;6669;42.678;23.332;2024-03-25T09:52:47;4.10;;;3.80;;
13208;SDS011;6669;42.678;23.332;2024-03-25T09:55:14;2.87;;;2.67;;
13208;SDS011;6669;42.678;23.332;2024-03-25T09:57:41;4.20;;;3.80;;
13208;SDS011;6669;42.678;23.332;2024-03-25T10:00:09;3.47;;;3.10;;
13208;SDS011;6669;42.678;23.332;2024-03-25T10:02:36;4.17;;;3.77;;
13208;SDS011;6669;42.678;23.332;2024-03-25T10:05:05;3.57;;;3.27;;
13208;SDS011;6669;42.678;23.332;2024-03-25T10:07:32;2.70;;;2.50;;
13208;SDS011;6669;42.678;23.332;2024-03-25T10:09:59;3.27;;;2.90;;
13208;SDS011;6669;42.678;23.332;2024-03-25T10:12:25;3.10;;;2.90;;
13208;SDS011;6669;42.678;23.332;2024-03-25T10:14:51;3.43;;;3.13;;
13208;SDS011;6669;42.678;23.332;2024-03-25T10:17:17;3.10;;;2.80;;
13208;SDS011;6669;42.678;23.332;2024-03-25T10:19:44;3.80;;;3.40;;
13208;SDS011;6669;42.678;23.332;2024-03-25T10:22:12;3.20;;;2.90;;
13208;SDS011;6669;42.678;23.332;2024-03-25T10:24:39;3.30;;;3.00;;
13208;SDS011;6669;42.678;23.332;2024-03-25T10:27:06;2.40;;;2.20;;
13208;SDS011;6669;42.678;23.332;2024-03-25T10:29:35;2.70;;;2.50;;
13208;SDS011;6669;42.678;23.332;2024-03-25T10:32:01;3.30;;;3.00;;
13208;SDS011;6669;42.678;23.332;2024-03-25T10:34:28;2.20;;;2.10;;
13208;SDS011;6669;42.678;23.332;2024-03-25T10:36:56;2.30;;;2.10;;
13208;SDS011;6669;42.678;23.332;2024-03-25T10:39:28;2.47;;;2.27;;
13208;SDS011;6669;42.678;23.332;2024-03-25T10:41:57;2.27;;;2.07;;
13208;SDS011;6669;42.678;23.332;2024-03-25T10:44:25;2.27;;;2.07;;
13208;SDS011;6669;42.678;23.332;2024-03-25T10:46:52;1.63;;;1.53;;
13208;SDS011;6669;42.678;23.332;2024-03-25T10:49:32;3.37;;;2.30;;
13208;SDS011;6669;42.678;23.332;2024-03-25T10:52:00;2.17;;;2.07;;
13208;SDS011;6669;42.678;23.332;2024-03-25T10:54:30;2.50;;;2.30;;
13208;SDS011;6669;42.678;23.332;2024-03-25T10:56:58;2.23;;;2.07;;
13208;SDS011;6669;42.678;23.332;2024-03-25T10:59:24;2.30;;;2.10;;
13208;SDS011;6669;42.678;23.332;2024-03-25T11:01:52;2.20;;;2.00;;
13208;SDS011;6669;42.678;23.332;2024-03-25T11:04:19;1.97;;;1.83;;
13208;SDS011;6669;42.678;23.332;2024-03-25T11:06:46;2.60;;;2.40;;
13208;SDS011;6669;42.678;23.332;2024-03-25T11:09:21;2.57;;;2.37;;
13208;SDS011;6669;42.678;23.332;2024-03-25T11:11:52;2.60;;;2.40;;
13208;SDS011;6669;42.678;23.332;2024-03-25T11:14:18;2.60;;;2.40;;
13208;SDS011;6669;42.678;23.332;2024-03-25T11:16:54;4.60;;;2.30;;
13208;SDS011;6669;42.678;23.332;2024-03-25T11:19:21;2.67;;;2.30;;
13208;SDS011;6669;42.678;23.332;2024-03-25T11:21:51;2.50;;;2.30;;
13208;SDS011;6669;42.678;23.332;2024-03-25T11:24:26;2.90;;;2.13;;
13208;SDS011;6669;42.678;23.332;2024-03-25T11:26:55;2.37;;;2.17;;
13208;SDS011;6669;42.678;23.332;2024-03-25T11:29:22;2.10;;;1.90;;
13208;SDS011;6669;42.678;23.332;2024-03-25T11:31:48;1.93;;;1.83;;
13208;SDS011;6669;42.678;23.332;2024-03-25T11:34:15;2.13;;;1.80;;
13208;SDS011;6669;42.678;23.332;2024-03-25T11:36:42;1.87;;;1.77;;
13208;SDS011;6669;42.678;23.332;2024-03-25T11:39:09;2.20;;;2.00;;
13208;SDS011;6669;42.678;23.332;2024-03-25T11:41:35;1.90;;;1.80;;
13208;SDS011;6669;42.678;23.332;2024-03-25T11:44:06;2.30;;;2.10;;
13208;SDS011;6669;42.678;23.332;2024-03-25T11:46:35;3.10;;;1.97;;
13208;SDS011;6669;42.678;23.332;2024-03-25T11:49:02;2.00;;;1.90;;
13208;SDS011;6669;42.678;23.332;2024-03-25T11:51:28;2.50;;;2.30;;
13208;SDS011;6669;42.678;23.332;2024-03-25T11:53:56;2.60;;;2.40;;
13208;SDS011;6669;42.678;23.332;2024-03-25T11:56:22;2.67;;;2.20;;
13208;SDS011;6669;42.678;23.332;2024-03-25T11:58:49;1.83;;;1.70;;
13208;SDS011;6669;42.678;23.332;2024-03-25T12:01:17;1.80;;;1.70;;
13208;SDS011;6669;42.678;23.332;2024-03-25T12:03:43;1.50;;;1.40;;
13208;SDS011;6669;42.678;23.332;2024-03-25T12:06:09;2.23;;;2.03;;
13208;SDS011;6669;42.678;23.332;2024-03-25T12:08:36;2.00;;;1.90;;
13208;SDS011;6669;42.678;23.332;2024-03-25T12:11:02;1.80;;;1.70;;
13208;SDS011;6669;42.678;23.332;2024-03-25T12:13:43;1.60;;;1.50;;
13208;SDS011;6669;42.678;23.332;2024-03-25T12:16:10;1.70;;;1.60;;
13208;SDS011;6669;42.678;23.332;2024-03-25T12:18:39;1.80;;;1.70;;
13208;SDS011;6669;42.678;23.332;2024-03-25T12:21:06;2.07;;;1.87;;
13208;SDS011;6669;42.678;23.332;2024-03-25T12:23:33;1.57;;;1.47;;
13208;SDS011;6669;42.678;23.332;2024-03-25T12:25:59;1.63;;;1.53;;
13208;SDS011;6669;42.678;23.332;2024-03-25T12:28:27;1.90;;;1.67;;
13208;SDS011;6669;42.678;23.332;2024-03-25T12:30:54;1.90;;;1.70;;
13208;SDS011;6669;42.678;23.332;2024-03-25T12:33:21;1.93;;;1.83;;
13208;SDS011;6669;42.678;23.332;2024-03-25T12:35:49;2.17;;;1.97;;
13208;SDS011;6669;42.678;23.332;2024-03-25T12:38:26;2.00;;;1.90;;
13208;SDS011;6669;42.678;23.332;2024-03-25T12:40:53;1.30;;;1.03;;
13208;SDS011;6669;42.678;23.332;2024-03-25T12:43:30;2.10;;;1.90;;
13208;SDS011;6669;42.678;23.332;2024-03-25T12:45:57;1.90;;;1.70;;
13208;SDS011;6669;42.678;23.332;2024-03-25T12:48:23;1.90;;;1.80;;
13208;SDS011;6669;42.678;23.332;2024-03-25T12:50:51;1.90;;;1.80;;
13208;SDS011;6669;42.678;23.332;2024-03-25T12:53:18;1.70;;;1.60;;
13208;SDS011;6669;42.678;23.332;2024-03-25T12:55:45;1.83;;;1.63;;
13208;SDS011;6669;42.678;23.332;2024-03-25T12:58:11;1.83;;;1.73;;
13208;SDS011;6669;42.678;23.332;2024-03-25T13:00:38;2.70;;;2.13;;
13208;SDS011;6669;42.678;23.332;2024-03-25T13:03:05;1.73;;;1.63;;
13208;SDS011;6669;42.678;23.332;2024-03-25T13:05:33;1.93;;;1.80;;
13208;SDS011;6669;42.678;23.332;2024-03-25T13:08:01;1.77;;;1.67;;
13208;SDS011;6669;42.678;23.332;2024-03-25T13:10:28;1.70;;;1.60;;
13208;SDS011;6669;42.678;23.332;2024-03-25T13:12:55;2.70;;;2.10;;
13208;SDS011;6669;42.678;23.332;2024-03-25T13:15:21;1.60;;;1.50;;
13208;SDS011;6669;42.678;23.332;2024-03-25T13:17:47;1.70;;;1.60;;
13208;SDS011;6669;42.678;23.332;2024-03-25T13:20:14;2.30;;;2.10;;
13208;SDS011;6669;42.678;23.332;2024-03-25T13:22:40;2.42;;;2.22;;
13208;SDS011;6669;42.678;23.332;2024-03-25T13:25:08;2.72;;;1.63;;
13208;SDS011;6669;42.678;23.332;2024-03-25T13:27:34;2.40;;;2.00;;
13208;SDS011;6669;42.678;23.332;2024-03-25T13:30:00;1.95;;;1.77;;
13208;SDS011;6669;42.678;23.332;2024-03-25T13:32:27;2.17;;;2.00;;
13208;SDS011;6669;42.678;23.332;2024-03-25T13:34:53;2.53;;;2.00;;
13208;SDS011;6669;42.678;23.332;2024-03-25T13:37:19;1.97;;;1.80;;
13208;SDS011;6669;42.678;23.332;2024-03-25T13:39:45;1.40;;;1.30;;
13208;SDS011;6669;42.678;23.332;2024-03-25T13:44:57;1.87;;;1.63;;
13208;SDS011;6669;42.678;23.332;2024-03-25T13:47:24;1.90;;;1.47;;
13208;SDS011;6669;42.678;23.332;2024-03-25T13:49:54;1.70;;;1.60;;
13208;SDS011;6669;42.678;23.332;2024-03-25T13:52:26;3.00;;;1.60;;
13208;SDS011;6669;42.678;23.332;2024-03-25T13:54:52;2.70;;;1.90;;
13208;SDS011;6669;42.678;23.332;2024-03-25T13:57:18;1.53;;;1.40;;
13208;SDS011;6669;42.678;23.332;2024-03-25T13:59:46;1.60;;;1.40;;
13208;SDS011;6669;42.678;23.332;2024-03-25T14:02:12;1.50;;;1.30;;
13208;SDS011;6669;42.678;23.332;2024-03-25T14:04:38;1.30;;;1.10;;
13208;SDS011;6669;42.678;23.332;2024-03-25T14:07:04;2.20;;;1.10;;
13208;SDS011;6669;42.678;23.332;2024-03-25T14:09:31;1.30;;;1.10;;
13208;SDS011;6669;42.678;23.332;2024-03-25T14:11:57;0.83;;;0.83;;
13208;SDS011;6669;42.678;23.332;2024-03-25T14:14:23;1.40;;;1.20;;
13208;SDS011;6669;42.678;23.332;2024-03-25T14:16:51;1.47;;;1.37;;
13208;SDS011;6669;42.678;23.332;2024-03-25T14:19:17;1.60;;;1.30;;
13208;SDS011;6669;42.678;23.332;2024-03-25T14:21:43;1.00;;;1.00;;
13208;SDS011;6669;42.678;23.332;2024-03-25T14:24:10;3.33;;;1.60;;
13208;SDS011;6669;42.678;23.332;2024-03-25T14:26:36;1.00;;;0.90;;
13208;SDS011;6669;42.678;23.332;2024-03-25T14:29:02;1.10;;;1.00;;
13208;SDS011;6669;42.678;23.332;2024-03-25T14:31:28;1.17;;;1.10;;
13208;SDS011;6669;42.678;23.332;2024-03-25T14:33:58;1.40;;;1.30;;
13208;SDS011;6669;42.678;23.332;2024-03-25T14:36:24;1.30;;;1.20;;
13208;SDS011;6669;42.678;23.332;2024-03-25T14:38:50;1.10;;;1.00;;
13208;SDS011;6669;42.678;23.332;2024-03-25T14:41:18;1.10;;;1.10;;
13208;SDS011;6669;42.678;23.332;2024-03-25T14:43:45;0.90;;;0.90;;
13208;SDS011;6669;42.678;23.332;2024-03-25T14:46:12;1.10;;;1.00;;
13208;SDS011;6669;42.678;23.332;2024-03-25T14:48:38;0.87;;;0.87;;
13208;SDS011;6669;42.678;23.332;2024-03-25T14:51:06;1.17;;;1.07;;
13208;SDS011;6669;42.678;23.332;2024-03-25T14:53:32;2.17;;;1.30;;